createdAt,value
2024-05-09T00:02:43.867Z,7.7
2024-05-09T00:05:45.855Z,8.2
2024-05-09T00:08:47.817Z,7.5
2024-05-09T00:11:49.838Z,6.6
2024-05-09T00:14:51.838Z,8.6
2024-05-09T00:17:53.856Z,7.8
2024-05-09T00:20:55.742Z,7.7
2024-05-09T00:23:57.752Z,8.8
2024-05-09T00:26:59.774Z,6.7
2024-05-09T00:30:02.095Z,6.4
2024-05-09T00:33:04.342Z,9
2024-05-09T00:36:05.814Z,7.5
2024-05-09T00:39:07.873Z,7.7
2024-05-09T00:42:09.744Z,7.7
2024-05-09T00:45:11.815Z,8.9
2024-05-09T00:48:15.421Z,9.4
2024-05-09T00:51:15.915Z,7.9
2024-05-09T00:54:17.800Z,9.2
2024-05-09T01:00:26.592Z,8.1
2024-05-09T01:03:24.533Z,7.1
2024-05-09T01:06:25.986Z,9.5
2024-05-09T01:09:28.164Z,9.5
2024-05-09T01:12:30.353Z,7.3
2024-05-09T01:15:32.374Z,9.2
2024-05-09T01:18:34.524Z,7.1
2024-05-09T01:21:36.491Z,10.5
2024-05-09T01:24:40.994Z,6.3
2024-05-09T01:30:43.991Z,9
2024-05-09T01:33:45.794Z,6
2024-05-09T01:39:49.614Z,8.5
2024-05-09T01:42:51.813Z,7.5
2024-05-09T01:45:53.891Z,7.3
2024-05-09T01:48:55.865Z,6.1
2024-05-09T01:51:57.815Z,6.7
2024-05-09T01:55:02.085Z,8.2
2024-05-09T01:58:02.038Z,5
2024-05-09T02:01:06.334Z,8.4
2024-05-09T02:04:06.867Z,7.2
2024-05-09T02:07:20.023Z,7
2024-05-09T02:10:16.388Z,8.3
2024-05-09T02:13:13.460Z,7.6
2024-05-09T02:16:15.483Z,7.8
2024-05-09T02:19:17.635Z,6.8
2024-05-09T02:22:19.528Z,8.5
2024-05-09T02:25:21.589Z,6.9
2024-05-09T02:28:23.626Z,6.7
2024-05-09T02:31:25.557Z,6
2024-05-09T02:34:27.558Z,6.1
2024-05-09T02:37:29.456Z,5.2
2024-05-09T02:40:35.215Z,6.4
2024-05-09T02:43:33.438Z,5.8
2024-05-09T02:46:35.353Z,4.6
2024-05-09T02:49:37.464Z,6.5
2024-05-09T02:52:39.263Z,7
2024-05-09T02:55:41.205Z,6.7
2024-05-09T02:58:43.154Z,5.5
2024-05-09T03:01:45.140Z,5
2024-05-09T03:04:47.135Z,6
2024-05-09T03:07:49.169Z,6.5
2024-05-09T03:10:51.254Z,5.1
2024-05-09T03:13:53.037Z,5.5
2024-05-09T03:16:54.912Z,4.6
2024-05-09T03:19:56.939Z,6.1
2024-05-09T03:22:58.940Z,4.8
2024-05-09T03:26:00.973Z,5.6
2024-05-09T03:29:02.928Z,5.8
2024-05-09T03:32:04.819Z,7.6
2024-05-09T03:35:06.752Z,6.2
2024-05-09T03:38:08.870Z,5.5
2024-05-09T03:41:10.650Z,6.6
2024-05-09T03:44:12.624Z,4.9
2024-05-09T03:47:14.561Z,8
2024-05-09T03:50:18.410Z,6.4
2024-05-09T03:53:18.591Z,5.4
2024-05-09T03:56:20.446Z,5.2
2024-05-09T03:59:22.478Z,5.6
2024-05-09T04:02:24.555Z,4
2024-05-09T04:05:26.464Z,5.8
2024-05-09T04:08:28.493Z,6.1
2024-05-09T04:11:30.362Z,5.1
2024-05-09T04:14:32.332Z,7.3
2024-05-09T04:17:34.404Z,5.2
2024-05-09T04:20:38.466Z,5.1
2024-05-09T04:23:38.324Z,7.7
2024-05-09T04:26:40.243Z,4.2
2024-05-09T04:29:42.148Z,5.8
2024-05-09T04:32:44.367Z,4.8
2024-05-09T04:35:46.138Z,4.6
2024-05-09T04:38:48.068Z,6
2024-05-09T04:41:49.934Z,5.8
2024-05-09T04:44:53.563Z,5
2024-05-09T04:47:54.134Z,5.5
2024-05-09T04:50:55.977Z,5.7
2024-05-09T04:53:57.836Z,5
2024-05-09T04:56:59.722Z,3.8
2024-05-09T05:00:02.075Z,3.6
2024-05-09T05:03:03.764Z,4.6
2024-05-09T05:06:05.678Z,5.2
2024-05-09T05:09:07.570Z,3.5
2024-05-09T05:12:09.799Z,3.4
2024-05-09T05:15:11.507Z,3.4
2024-05-09T05:18:13.495Z,4.7
2024-05-09T05:21:15.483Z,4.8
2024-05-09T05:24:17.432Z,5.6
2024-05-09T05:30:24.937Z,4.7
2024-05-09T05:33:23.656Z,5.1
2024-05-09T05:36:25.164Z,4.6
2024-05-09T05:39:27.159Z,4.5
2024-05-09T05:42:29.086Z,3
2024-05-09T05:45:31.092Z,4.9
2024-05-09T05:48:33.093Z,3.7
2024-05-09T05:51:34.923Z,3.7
2024-05-09T05:54:36.948Z,6.2
2024-05-09T06:03:43.053Z,3.3
2024-05-09T06:06:44.907Z,4.5
2024-05-09T06:09:47.647Z,5.3
2024-05-09T06:12:48.729Z,3.8
2024-05-09T06:15:50.750Z,3
2024-05-09T06:18:53.035Z,3.5
2024-05-09T06:21:54.791Z,4.9
2024-05-09T06:24:56.757Z,3.2
2024-05-09T06:27:58.706Z,3.7
2024-05-09T06:31:00.629Z,3.8
2024-05-09T06:34:02.663Z,4
2024-05-09T06:40:07.456Z,5.1
2024-05-09T06:43:08.493Z,2.8
2024-05-09T06:46:10.475Z,4.7
2024-05-09T06:49:12.517Z,4.7
2024-05-09T06:52:14.303Z,4.3
2024-05-09T06:55:16.310Z,4
2024-05-09T06:58:18.216Z,2.7
2024-05-09T07:01:20.332Z,4.9
2024-05-09T07:04:22.245Z,3
2024-05-09T07:07:24.115Z,5
2024-05-09T07:10:29.321Z,4.6
2024-05-09T07:13:28.250Z,6.7
2024-05-09T07:16:30.156Z,4.4
2024-05-09T07:19:32.203Z,3.5
2024-05-09T07:22:34.052Z,3.4
2024-05-09T07:25:35.959Z,3.4
2024-05-09T07:28:38.002Z,3.7
2024-05-09T07:31:39.893Z,4.6
2024-05-09T07:34:42.072Z,3
2024-05-09T07:37:43.860Z,3.8
2024-05-09T07:40:46.434Z,4.6
2024-05-09T07:43:47.976Z,4
2024-05-09T07:47:20.677Z,5.3
2024-05-09T07:50:35.751Z,4.2
2024-05-09T07:53:29.221Z,2.7
2024-05-09T07:55:56.424Z,3.4
2024-05-09T07:58:57.589Z,3.8
2024-05-09T08:01:59.827Z,4
2024-05-09T08:05:01.755Z,3.8
2024-05-09T08:08:03.480Z,5
2024-05-09T08:11:05.502Z,3
2024-05-09T08:14:07.404Z,4.3
2024-05-09T08:17:09.407Z,6.4
2024-05-09T08:20:11.436Z,4.2
2024-05-09T08:23:13.246Z,3.9
2024-05-09T08:26:15.202Z,3.7
2024-05-09T08:29:17.181Z,2.9
2024-05-09T08:32:19.176Z,3.3
2024-05-09T08:35:21.067Z,2.2
2024-05-09T08:38:23.088Z,4.6
2024-05-09T08:41:25.064Z,3.8
2024-05-09T08:44:27.017Z,2.9
2024-05-09T08:47:29.151Z,2.7
2024-05-09T08:50:35.836Z,3.1
2024-05-09T08:53:32.882Z,3.4
2024-05-09T08:56:34.876Z,2.6
2024-05-09T08:59:36.868Z,2.1
2024-05-09T09:02:38.954Z,3.2
2024-05-09T09:08:42.814Z,3
2024-05-09T09:11:44.764Z,3.2
2024-05-09T09:14:46.759Z,3
2024-05-09T09:17:48.799Z,2.3
2024-05-09T09:20:50.721Z,4
2024-05-09T09:23:52.847Z,2.4
2024-05-09T09:26:54.797Z,4
2024-05-09T09:29:57.058Z,2.8
2024-05-09T09:32:59.028Z,2.7
2024-05-09T09:36:01.234Z,3.5
2024-05-09T09:39:02.842Z,2.2
2024-05-09T09:42:04.804Z,4.1
2024-05-09T09:45:06.861Z,2.6
2024-05-09T09:48:09.135Z,2.9
2024-05-09T09:51:11.025Z,2.5
2024-05-09T09:54:13.052Z,3.3
2024-05-09T10:03:19.312Z,2.8
2024-05-09T10:06:21.101Z,4.5
2024-05-09T10:09:23.021Z,3.1
2024-05-09T10:12:25.067Z,3.6
2024-05-09T10:15:27.041Z,2.8
2024-05-09T10:18:30.386Z,2.9
2024-05-09T10:21:31.021Z,2.9
2024-05-09T10:24:33.043Z,3.4
2024-05-09T10:30:37.436Z,2.3
2024-05-09T10:33:39.256Z,3.9
2024-05-09T10:36:41.003Z,3.2
2024-05-09T10:39:42.952Z,3.7
2024-05-09T10:42:44.960Z,2.9
2024-05-09T10:45:46.996Z,2.3
2024-05-09T10:48:49.194Z,3.6
2024-05-09T10:51:50.942Z,1.5
2024-05-09T10:54:52.805Z,2.8
2024-05-09T10:57:54.806Z,1.8
2024-05-09T11:00:56.789Z,2
2024-05-09T11:03:58.731Z,3.6
2024-05-09T11:10:02.740Z,3.9
2024-05-09T11:13:04.623Z,2.9
2024-05-09T11:16:06.800Z,4
2024-05-09T11:19:08.618Z,2.4
2024-05-09T11:22:10.508Z,3
2024-05-09T11:25:12.451Z,3.2
2024-05-09T11:28:14.457Z,2.8
2024-05-09T11:31:16.796Z,5.3
2024-05-09T11:34:18.426Z,2.7
2024-05-09T11:37:20.434Z,1.9
2024-05-09T11:40:25.089Z,5.3
2024-05-09T11:43:24.449Z,3
2024-05-09T11:46:26.323Z,1.4
2024-05-09T11:49:28.272Z,1.2
2024-05-09T11:52:30.204Z,1.7
2024-05-09T11:55:32.156Z,2.8
2024-05-09T11:58:34.128Z,3.1
2024-05-09T12:01:36.230Z,4
2024-05-09T12:04:38.147Z,2.6
2024-05-09T12:07:40.018Z,2.3
2024-05-09T12:10:42.058Z,1.1
2024-05-09T12:13:43.904Z,1.3
2024-05-09T12:16:46.008Z,3.2
2024-05-09T12:19:47.946Z,2.9
2024-05-09T12:22:49.844Z,3.2
2024-05-09T12:25:51.863Z,2.6
2024-05-09T12:28:53.886Z,2.8
2024-05-09T12:31:55.945Z,3.2
2024-05-09T12:34:57.841Z,2.6
2024-05-09T12:37:59.793Z,3.4
2024-05-09T12:41:01.777Z,3.6
2024-05-09T12:44:03.667Z,4.5
2024-05-09T12:47:05.679Z,3.8
2024-05-09T12:50:10.847Z,2.2
2024-05-09T12:53:09.730Z,1.3
2024-05-09T12:56:11.561Z,2.7
2024-05-09T12:59:13.565Z,2.7
2024-05-09T13:02:15.745Z,2.4
2024-05-09T13:05:17.689Z,1.4
2024-05-09T13:08:19.446Z,1.8
2024-05-09T13:11:21.423Z,4.3
2024-05-09T13:14:23.315Z,2.3
2024-05-09T13:17:25.515Z,2.5
2024-05-09T13:20:31.119Z,2.4
2024-05-09T13:23:29.270Z,1.9
2024-05-09T13:26:31.225Z,2.4
2024-05-09T13:29:33.169Z,2.1
2024-05-09T13:32:35.140Z,1.4
2024-05-09T13:35:37.052Z,1.7
2024-05-09T13:38:39.010Z,1.8
2024-05-09T13:41:40.928Z,1.9
2024-05-09T13:44:42.930Z,1.8
2024-05-09T13:47:44.993Z,2
2024-05-09T13:50:46.839Z,1.9
2024-05-09T13:53:48.834Z,1.2
2024-05-09T13:56:50.801Z,3.4
2024-05-09T13:59:52.783Z,2.5
2024-05-09T14:02:54.984Z,3.1
2024-05-09T14:05:56.900Z,2.3
2024-05-09T14:08:58.751Z,2.3
2024-05-09T14:12:00.737Z,1.7
2024-05-09T14:15:02.659Z,2.1
2024-05-09T14:18:04.670Z,1.5
2024-05-09T14:21:06.597Z,2.5
2024-05-09T14:24:08.533Z,1.8
2024-05-09T14:30:18.039Z,2.1
2024-05-09T14:33:14.551Z,3.7
2024-05-09T14:36:16.781Z,1.2
2024-05-09T14:39:18.457Z,1.9
2024-05-09T14:42:20.520Z,2.2
2024-05-09T14:45:22.449Z,2.2
2024-05-09T14:48:24.505Z,2.3
2024-05-09T14:51:26.363Z,2.1
2024-05-09T14:54:28.292Z,1.5
2024-05-09T15:03:34.250Z,3.7
2024-05-09T15:06:36.251Z,4.1
2024-05-09T15:12:40.191Z,4
2024-05-09T15:15:42.156Z,2.6
2024-05-09T15:21:46.103Z,1.7
2024-05-09T15:24:48.019Z,1.5
2024-05-09T15:27:50.084Z,3.6
2024-05-09T15:30:51.998Z,3
2024-05-09T15:33:54.037Z,1.5
2024-05-09T15:36:55.906Z,3.1
2024-05-09T15:39:57.947Z,1.6
2024-05-09T15:42:59.899Z,3.9
2024-05-09T15:46:01.933Z,2
2024-05-09T15:52:05.808Z,2.9
2024-05-09T15:55:07.845Z,1.6
2024-05-09T15:58:09.655Z,2.4
2024-05-09T16:01:11.696Z,1.8
2024-05-09T16:04:13.689Z,2.6
2024-05-09T16:07:15.562Z,2
2024-05-09T16:10:20.101Z,1.5
2024-05-09T16:13:19.684Z,3
2024-05-09T16:16:21.509Z,1.4
2024-05-09T16:19:23.346Z,1.3
2024-05-09T16:22:25.422Z,2.6
2024-05-09T16:25:27.370Z,1.7
2024-05-09T16:28:29.358Z,2.1
2024-05-09T16:31:31.319Z,2.6
2024-05-09T16:34:33.298Z,2.9
2024-05-09T16:37:35.182Z,2.1
2024-05-09T16:40:38.982Z,3
2024-05-09T16:43:39.079Z,1.7
2024-05-09T16:46:41.028Z,1.9
2024-05-09T16:49:42.933Z,2.6
2024-05-09T16:52:44.954Z,4.1
2024-05-09T16:55:46.914Z,2.5
2024-05-09T16:58:48.844Z,1.4
2024-05-09T17:01:50.995Z,1
2024-05-09T17:04:52.946Z,1.8
2024-05-09T17:07:54.852Z,1.5
2024-05-09T17:10:56.953Z,1.2
2024-05-09T17:13:58.691Z,1.8
2024-05-09T17:17:00.769Z,1.3
2024-05-09T17:20:02.944Z,2.1
2024-05-09T17:23:05.333Z,3.2
2024-05-09T17:26:06.586Z,2.3
2024-05-09T17:29:10.981Z,2.3
2024-05-09T17:32:10.426Z,2.6
2024-05-09T17:35:12.424Z,1.5
2024-05-09T17:38:17.090Z,3.1
2024-05-09T17:41:19.036Z,1.5
2024-05-09T17:44:21.042Z,2.6
2024-05-09T17:47:23.080Z,3
2024-05-09T17:50:27.802Z,1.8
2024-05-09T17:53:26.917Z,1.2
2024-05-09T17:56:28.837Z,2.1
2024-05-09T17:59:30.871Z,6.2
2024-05-09T18:02:32.911Z,2.8
2024-05-09T18:05:35.408Z,1.6
2024-05-09T18:08:36.703Z,2.7
2024-05-09T18:11:38.746Z,2.1
2024-05-09T18:14:40.673Z,1.9
2024-05-09T18:17:42.714Z,2.9
2024-05-09T18:20:45.637Z,2.4
2024-05-09T18:23:46.890Z,2.1
2024-05-09T18:26:48.508Z,3.3
2024-05-09T18:29:50.445Z,3.3
2024-05-09T18:32:52.540Z,1.9
2024-05-09T18:35:54.362Z,2.9
2024-05-09T18:38:56.390Z,1.8
2024-05-09T18:41:58.298Z,1.6
2024-05-09T18:45:00.344Z,1.8
2024-05-09T18:48:02.396Z,1.5
2024-05-09T18:51:04.229Z,1.2
2024-05-09T18:54:06.220Z,2.8
2024-05-09T18:57:08.159Z,2
2024-05-09T19:03:13.343Z,2.8
2024-05-09T19:06:13.946Z,1.5
2024-05-09T19:12:17.860Z,2.3
2024-05-09T19:15:19.803Z,3.5
2024-05-09T19:18:21.950Z,3.9
2024-05-09T19:21:23.831Z,1.8
2024-05-09T19:24:25.722Z,3.5
2024-05-09T19:27:27.709Z,2.2
2024-05-09T19:30:34.313Z,2.7
2024-05-09T19:33:31.736Z,3.5
2024-05-09T19:36:33.636Z,2.3
2024-05-09T19:42:37.541Z,2.2
2024-05-09T19:45:39.482Z,3.5
2024-05-09T19:51:43.347Z,2.2
2024-05-09T19:54:45.411Z,2.3
2024-05-09T19:57:47.395Z,4.3
2024-05-09T20:00:49.338Z,3
2024-05-09T20:03:51.488Z,2.6
2024-05-09T20:06:53.184Z,5.4
2024-05-09T20:09:55.249Z,3.7
2024-05-09T20:12:57.177Z,3.5
2024-05-09T20:15:59.187Z,3.6
2024-05-09T20:22:03.012Z,3.8
2024-05-09T20:25:04.917Z,3.7
2024-05-09T20:28:07.171Z,3
2024-05-09T20:31:08.851Z,5.6
2024-05-09T20:34:10.883Z,4.4
2024-05-09T20:37:12.897Z,3.3
2024-05-09T20:40:18.120Z,3.1
2024-05-09T20:43:17.068Z,4.1
2024-05-09T20:46:18.629Z,5.9
2024-05-09T20:49:20.802Z,3.2
2024-05-09T20:52:22.530Z,3.7
2024-05-09T20:55:24.607Z,4.5
2024-05-09T20:58:26.475Z,3.6
2024-05-09T21:01:28.528Z,4.7
2024-05-09T21:04:30.419Z,4.5
2024-05-09T21:07:32.285Z,5.4
2024-05-09T21:10:34.658Z,3.9
2024-05-09T21:13:36.314Z,4.2
2024-05-09T21:16:38.498Z,4.2
2024-05-09T21:19:40.142Z,4.1
2024-05-09T21:22:42.090Z,5.7
2024-05-09T21:25:44.051Z,5.9
2024-05-09T21:28:46.005Z,6
2024-05-09T21:31:48.042Z,7.2
2024-05-09T21:34:49.953Z,5.4
2024-05-09T21:37:51.857Z,5.1
2024-05-09T21:40:53.853Z,6.6
2024-05-09T21:43:55.760Z,7.1
2024-05-09T21:46:57.736Z,5.6
2024-05-09T21:49:59.689Z,6.3
2024-05-09T21:53:01.634Z,4.7
2024-05-09T21:56:03.580Z,5.2
2024-05-09T21:59:05.549Z,4.4
2024-05-09T22:02:07.620Z,4.9
2024-05-09T22:05:09.524Z,4.2
2024-05-09T22:08:11.450Z,5.6
2024-05-09T22:11:13.383Z,3.8
2024-05-09T22:14:15.307Z,4.5
2024-05-09T22:17:17.278Z,5.4
2024-05-09T22:20:25.144Z,4.7
2024-05-09T22:23:21.099Z,4.3
2024-05-09T22:26:23.042Z,5.2
2024-05-09T22:29:25.071Z,5.2
2024-05-09T22:32:27.087Z,4.7
2024-05-09T22:35:28.909Z,4.8
2024-05-09T22:38:30.912Z,3.9
2024-05-09T22:41:32.800Z,4.7
2024-05-09T22:44:34.862Z,5.9
2024-05-09T22:47:36.815Z,7.1
2024-05-09T22:50:38.719Z,4.8
2024-05-09T22:53:40.720Z,5.9
2024-05-09T22:56:42.644Z,3.9
2024-05-09T22:59:44.666Z,3.8
2024-05-09T23:02:46.615Z,4.8
2024-05-09T23:05:48.574Z,3.2
2024-05-09T23:08:50.470Z,4.5
2024-05-09T23:11:52.515Z,5.7
2024-05-09T23:14:54.382Z,6
2024-05-09T23:17:56.480Z,6
2024-05-09T23:20:58.325Z,3.7
2024-05-09T23:24:00.424Z,3.6
2024-05-09T23:27:02.283Z,3.3
2024-05-09T23:30:06.012Z,4.1
2024-05-09T23:33:06.395Z,5
2024-05-09T23:36:08.098Z,5.2
2024-05-09T23:42:11.993Z,5.3
2024-05-09T23:45:13.911Z,4
2024-05-09T23:48:16.032Z,4.1
2024-05-09T23:51:17.894Z,5
2024-05-09T23:54:19.868Z,3.6
2024-05-09T23:57:21.926Z,4
